Flight Track Log - Related Links

Times and Time Zones

All times are in EDT time to prevent confusion due to time zone crossing. See the EGF4090 flight status page for this flight to view local times or setup timezone preferences in your user account.

Time Position Orientation Groundspeed Altitude Reporting Facility
EDT Latitude Longitude Course Direction KTS MPH feet Rate Location/Type
Fri 11:22:10 PM 41.9667 -87.8667 180° South 176 203 3,000  Level Chicago TRACON
Fri 11:23:00 PM 41.8113 -88.0201 191° South  Level Estimated
Fri 11:23:04 PM 41.9167 -87.8167 143° Southeast 219 252 5,300  Level Chicago TRACON
Fri 11:23:58 PM 41.8667 -87.8167 180° South 249 287 7,100 2,194 Climbing Chicago TRACON
Fri 11:24:00 PM 41.7260 -88.0766 192° South  Level Estimated
Fri 11:25:00 PM 41.6406 -88.0207 154° Southeast  Level FlightAware Approximate
Fri 11:26:00 PM 41.5558 -88.0781 189° South  Level Estimated
Fri 11:26:10 PM 41.7142 -87.8922 200° South 276 318 12,100  Level Chicago Center
Fri 11:27:00 PM 41.4709 -88.1355 180° South  Level Estimated
Fri 11:27:11 PM 41.6372 -87.9275 199° South 291 335 14,400  Level Chicago Center
Fri 11:28:12 PM 41.5417 -87.9700 198° South 300 345 16,100 1,328 Climbing Chicago Center
Fri 11:29:13 PM 41.4508 -88.0114 199° South 336 387 17,100 1,024 Climbing Chicago Center
Fri 11:30:15 PM 41.3586 -88.0508 198° South 349 402 18,200 1,024 Climbing Chicago Center
Fri 11:31:16 PM 41.2731 -88.0942 201° Southwest 367 422 19,200 1,082 Climbing Chicago Center
Fri 11:32:17 PM 41.1811 -88.1608 209° Southwest 375 432 20,400 1,180 Climbing Chicago Center
Fri 11:33:18 PM 41.0658 -88.2417 208° Southwest 387 445 21,600 1,033 Climbing Chicago Center
Fri 11:34:19 PM 40.9683 -88.3083 207° Southwest 394 453 22,500 934 Climbing Chicago Center
Fri 11:35:20 PM 40.8697 -88.3778 208° Southwest 401 461 23,500 984 Climbing Chicago Center
Fri 11:36:21 PM 40.7719 -88.4450 208° Southwest 399 459 24,500 984 Climbing Chicago Center
Fri 11:37:22 PM 40.6725 -88.5122 207° Southwest 402 463 25,500 984 Climbing Chicago Center
Fri 11:38:23 PM 40.5747 -88.5806 208° Southwest 402 463 26,500 934 Climbing Chicago Center
Fri 11:39:24 PM 40.4750 -88.6475 207° Southwest 404 465 27,400 934 Climbing Chicago Center
Fri 11:40:25 PM 40.3781 -88.7131 207° Southwest 406 467 28,400 984 Climbing Chicago Center
Fri 11:41:26 PM 40.2772 -88.7800 207° Southwest 405 466 29,400 934 Climbing Chicago Center
Fri 11:42:27 PM 40.1767 -88.8481 207° Southwest 405 466 30,300 1,062 Climbing Chicago Center
Fri 11:43:19 PM 40.0722 -88.9178 207° Southwest 409 471 31,400 1,115 Climbing Kansas City Center
Fri 11:44:20 PM 39.9669 -88.9878 207° Southwest 418 481 32,400 1,475 Climbing Kansas City Center
Fri 11:45:21 PM 39.8653 -89.0567 207° Southwest 414 476 34,400 1,721 Climbing Kansas City Center
Fri 11:46:22 PM 39.7686 -89.1233 208° Southwest 399 459 35,900 787 Climbing Kansas City Center
Fri 11:47:23 PM 39.6708 -89.1858 206° Southwest 393 452 36,000 49 Climbing Kansas City Center
Fri 11:48:24 PM 39.5686 -89.2533 207° Southwest 405 466 36,000  Level Kansas City Center
Fri 11:49:25 PM 39.4617 -89.3239 207° Southwest 404 465 36,000  Level Kansas City Center
Fri 11:50:26 PM 39.3611 -89.3892 207° Southwest 403 464 36,000  Level Kansas City Center
Fri 11:51:27 PM 39.2614 -89.4561 207° Southwest 404 465 36,000  Level Kansas City Center
Fri 11:52:27 PM 39.1547 -89.5253 207° Southwest 404 465 36,000  Level Kansas City Center
Fri 11:53:29 PM 39.0567 -89.5894 207° Southwest 397 457 36,000  Level Kansas City Center
Fri 11:54:29 PM 38.9481 -89.6594 207° Southwest 408 470 36,000  Level Kansas City Center
Fri 11:55:30 PM 38.8594 -89.7156 206° Southwest 410 472 36,000  Level Kansas City Center
Fri 11:56:31 PM 38.7603 -89.7800 207° Southwest 402 463 36,000  Level Kansas City Center
Fri 11:57:32 PM 38.6625 -89.8431 207° Southwest 395 455 36,000  Level Kansas City Center
Fri 11:58:33 PM 38.5647 -89.9056 207° Southwest 391 450 36,000  Level Kansas City Center
Fri 11:59:34 PM 38.4667 -89.9689 207° Southwest 392 451 36,000  Level Kansas City Center
Sat 12:00:35 AM 38.3683 -90.0314 206° Southwest 392 451 36,000  Level Kansas City Center
Sat 12:01:35 AM 38.2667 -90.0944 206° Southwest 400 460 36,000  Level Kansas City Center
Sat 12:02:36 AM 38.1658 -90.1581 206° Southwest 403 464 36,000  Level Kansas City Center
Sat 12:03:37 AM 38.0667 -90.2222 207° Southwest 399 459 36,000  Level Kansas City Center
Sat 12:04:38 AM 37.9464 -90.2975 206° Southwest 402 463 36,000  Level Kansas City Center
Sat 12:05:39 AM 37.8464 -90.3614 207° Southwest 402 463 36,000  Level Kansas City Center
Sat 12:06:40 AM 37.7447 -90.4233 206° Southwest 405 466 36,000  Level Kansas City Center
Sat 12:07:41 AM 37.6433 -90.4875 207° Southwest 407 468 36,000  Level Kansas City Center
Sat 12:08:41 AM 37.5419 -90.5517 207° Southwest 407 468 36,000  Level Kansas City Center
Sat 12:09:42 AM 37.4408 -90.6139 206° Southwest 407 468 36,000  Level Kansas City Center
Sat 12:10:43 AM 37.3353 -90.6792 206° Southwest 404 465 36,000  Level Kansas City Center
Sat 12:11:20 AM 37.2669 -90.7244 208° Southwest 410 472 36,000  Level Memphis Center
Sat 12:12:20 AM 37.1917 -90.7708 206° Southwest 405 466 36,000  Level Memphis Center
Sat 12:13:20 AM 37.0811 -90.8328 204° Southwest 402 463 36,000 -150 Level Memphis Center
Sat 12:14:20 AM 36.9744 -90.9047 208° Southwest 413 475 35,700 -650 Descending Memphis Center
Sat 12:15:20 AM 36.8722 -90.9639 205° Southwest 413 475 34,700 -850 Descending Memphis Center
Sat 12:16:20 AM 36.7717 -91.0253 206° Southwest 405 466 34,000 -350 Descending Memphis Center
Sat 12:17:20 AM 36.6736 -91.0839 206° Southwest 395 455 34,000  Level Memphis Center
Sat 12:18:20 AM 36.5772 -91.1425 206° Southwest 390 449 34,000  Level Memphis Center
Sat 12:19:20 AM 36.4769 -91.2008 205° Southwest 390 449 34,000  Level Memphis Center
Sat 12:20:20 AM 36.3806 -91.2592 206° Southwest 390 449 34,000  Level Memphis Center
Sat 12:21:20 AM 36.2800 -91.3197 206° Southwest 396 456 34,000 1,000 Level Memphis Center
Sat 12:22:20 AM 36.1753 -91.3803 205° Southwest 401 461 36,000 -2,300 Climbing Memphis Center
Sat 12:23:20 AM 36.0769 -91.4381 205° Southwest 401 461 29,400 -4,550 Descending Memphis Center
Sat 12:24:20 AM 35.9742 -91.4983 205° Southwest 406 467 26,900 -2,400 Descending Memphis Center
Sat 12:25:20 AM 35.8861 -91.5561 208° Southwest 393 452 24,600 -2,400 Descending Memphis Center
Sat 12:26:20 AM 35.7917 -91.6136 206° Southwest 382 440 22,100 -2,500 Descending Memphis Center
Sat 12:27:20 AM 35.6994 -91.6658 205° Southwest 377 434 19,600 -2,300 Descending Memphis Center
Sat 12:28:20 AM 35.6092 -91.7181 205° Southwest 372 428 17,500 -2,143 Descending Memphis Center
Sat 12:29:26 AM 35.4978 -91.7850 206° Southwest 361 415 15,100 -1,950 Descending Memphis Center
Sat 12:30:20 AM 35.4286 -91.8222 204° Southwest 364 419 13,600 -1,842 Descending Memphis Center
Sat 12:31:20 AM 35.3508 -91.8667 205° Southwest 349 402 11,600 -1,800 Descending Memphis Center
Sat 12:32:20 AM 35.2794 -91.9086 206° Southwest 314 361 10,000 -1,300 Descending Memphis Center
Sat 12:33:20 AM 35.2142 -91.9481 206° Southwest 279 321 9,000 -1,070 Descending Memphis Center
Sat 12:34:29 AM 35.1303 -91.9947 204° Southwest 263 303 7,700 -950 Descending Memphis Center
Sat 12:35:20 AM 35.0861 -92.0217 207° Southwest 258 297 7,100 -486 Descending Memphis Center
Sat 12:36:20 AM 35.0231 -92.0586 206° Southwest 258 297 6,800 -950 Descending Memphis Center
Sat 12:37:20 AM 34.9639 -92.0953 207° Southwest 258 297 5,200 -1,600 Descending Memphis Center
Sat 12:38:20 AM 34.9050 -92.1347 209° Southwest 248 285 3,600 -1,250 Descending Memphis Center
Sat 12:39:20 AM 34.8419 -92.1739 207° Southwest 248 285 2,700 -800 Descending Memphis Center
Sat 12:40:20 AM 34.7931 -92.2283 222° Southwest 248 285 2,000 -300 Descending Memphis Center
Sat 12:41:20 AM 34.7486 -92.2781 223° Southwest 240 276 2,100  Climbing Memphis Center
Sat 12:42:28 AM 34.6956 -92.3350 221° Southwest 181 208 2,000 -150 Descending Memphis Center
Sat 12:43:20 AM 34.6856 -92.2967 108° East 112 129 1,800 -536 Descending Memphis Center
Sat 12:44:20 AM 34.7008 -92.2619 62° Northeast 62 71 1,000 -800 Descending Memphis Center

Login

Don't have an account? Register now (free) for customized features, flight alerts, and more!